Lake Station, Indiana
Current Conditions -  °F | °C
As of 2:45 PM on Sunday 23 Nov 2014 (Local Time) from KGYY Reporting Station
Light Rain Light Rain  
Wind Chill: 52°   Ceiling: 1600
Heat Index: 52°   Visibility: 3mi
Dew Point: 50°   Wind: 9mph
Humidity: 94%   Direction: 140°SE
Pressure: 29.52"   Gusts: NA
Location:  41.57°N, 87.24°W
Report Text: KGYY 232045Z 14008KT 3SM -RA BKN016 OVC032 11/10 A2952
Loading
Personal Weather Stations






























Interactive Weather Map New forecast layout! Learn more

10-Day Weather Forecast

Advertisements
Track Severe Weather on mobile